Babbitt, Nevada
Current Conditions -  °F | °C
As of 6:56 PM on Monday 20 Oct 2014 (Local Time) from KNFL Reporting Station
Broken Clouds Broken Clouds  
Wind Chill: 68°   Ceiling: 22000
Heat Index: 68°   Visibility: 10mi
Dew Point: 28°   Wind: 8mph
Humidity: 22%   Direction: 280°W
Pressure: 29.8"   Gusts: NA
Location:  38.6331°N, 118.656°W
Report Text: KNFL 210156Z 28007KT 10SM FEW070 FEW120 BKN220 20/M02 A2980 RMK AO2 SLP068 T02001022
Loading
Personal Weather Stations






























Interactive Weather Map
Tropical Storm Tracking
New forecast layout! Learn more

10-Day Weather Forecast

Advertisements
Track Severe Weather on mobile